createdAt,value
2017-12-16T00:00:04.314Z,2.10
2017-12-16T00:02:43.654Z,1.80
2017-12-16T00:05:18.172Z,3.53
2017-12-16T00:07:52.705Z,3.90
2017-12-16T00:10:27.403Z,4.67
2017-12-16T00:13:01.905Z,2.30
2017-12-16T00:15:36.423Z,2.40
2017-12-16T00:18:13.823Z,7.83
2017-12-16T00:20:48.253Z,2.90
2017-12-16T00:23:22.658Z,3.63
2017-12-16T00:25:57.118Z,2.20
2017-12-16T00:28:31.588Z,2.50
2017-12-16T00:31:05.991Z,2.17
2017-12-16T00:33:40.355Z,2.30
2017-12-16T00:36:14.734Z,2.30
2017-12-16T00:38:49.112Z,3.27
2017-12-16T00:41:23.546Z,2.40
2017-12-16T00:43:58.042Z,9.00
2017-12-16T00:46:32.394Z,2.97
2017-12-16T00:49:07.123Z,5.03
2017-12-16T00:51:41.672Z,10.83
2017-12-16T00:54:16.106Z,3.23
2017-12-16T00:56:50.457Z,1.80
2017-12-16T00:59:25.143Z,4.10
2017-12-16T01:01:59.699Z,6.67
2017-12-16T01:04:34.333Z,4.10
2017-12-16T01:07:08.962Z,2.40
2017-12-16T01:09:43.518Z,5.63
2017-12-16T01:12:18.034Z,2.67
2017-12-16T01:14:52.495Z,3.73
2017-12-16T01:17:26.916Z,2.73
2017-12-16T01:20:01.538Z,3.80
2017-12-16T01:22:36.026Z,3.17
2017-12-16T01:25:14.848Z,4.43
2017-12-16T01:27:49.400Z,2.73
2017-12-16T01:30:23.912Z,2.70
2017-12-16T01:32:58.664Z,4.53
2017-12-16T01:35:44.039Z,2.57
2017-12-16T01:38:28.730Z,2.80
2017-12-16T01:41:03.161Z,3.03
2017-12-16T01:43:38.042Z,2.77
2017-12-16T01:46:12.510Z,4.33
2017-12-16T01:48:47.078Z,5.63
2017-12-16T01:51:21.628Z,3.07
2017-12-16T01:53:55.998Z,4.90
2017-12-16T01:56:30.406Z,3.27
2017-12-16T01:59:04.532Z,3.87
2017-12-16T02:01:38.799Z,6.97
2017-12-16T02:04:13.011Z,3.50
2017-12-16T02:06:47.202Z,6.93
2017-12-16T02:09:21.812Z,3.87
2017-12-16T02:11:56.701Z,6.20
2017-12-16T02:14:30.851Z,7.70
2017-12-16T02:17:04.968Z,5.20
2017-12-16T02:19:39.218Z,3.70
2017-12-16T02:22:14.245Z,3.80
2017-12-16T02:24:48.390Z,4.67
2017-12-16T02:27:22.443Z,3.73
2017-12-16T02:29:56.476Z,7.67
2017-12-16T02:32:33.066Z,3.97
2017-12-16T02:35:14.563Z,3.00
2017-12-16T02:37:48.698Z,3.73
2017-12-16T02:40:23.406Z,3.97
2017-12-16T02:42:58.238Z,3.57
2017-12-16T02:45:32.663Z,3.87
2017-12-16T02:48:06.806Z,7.40
2017-12-16T02:50:40.906Z,3.77
2017-12-16T02:53:15.077Z,3.97
2017-12-16T02:55:49.310Z,4.80
2017-12-16T02:58:23.326Z,5.60
2017-12-16T03:00:57.417Z,3.70
2017-12-16T03:03:31.552Z,4.23
2017-12-16T03:06:06.002Z,4.63
2017-12-16T03:08:40.278Z,7.67
2017-12-16T03:11:14.385Z,3.23
2017-12-16T03:13:48.671Z,5.03
2017-12-16T03:16:22.817Z,7.63
2017-12-16T03:18:57.050Z,4.10
2017-12-16T03:21:31.163Z,5.67
2017-12-16T03:24:04.953Z,3.40
2017-12-16T03:26:39.150Z,3.20
2017-12-16T03:29:13.290Z,7.20
2017-12-16T03:31:47.542Z,4.00
2017-12-16T03:34:21.750Z,4.33
2017-12-16T03:36:56.001Z,5.77
2017-12-16T03:39:30.186Z,5.90
2017-12-16T03:42:03.963Z,4.97
2017-12-16T03:44:38.194Z,4.00
2017-12-16T03:47:12.366Z,5.23
2017-12-16T03:49:46.567Z,5.53
2017-12-16T03:52:20.630Z,6.20
2017-12-16T03:54:54.821Z,5.57
2017-12-16T03:57:28.853Z,4.70
2017-12-16T04:00:13.166Z,4.67
2017-12-16T04:02:47.685Z,13.53
2017-12-16T04:05:22.758Z,7.13
2017-12-16T04:07:58.775Z,7.00
2017-12-16T04:10:33.543Z,6.00
2017-12-16T04:13:07.906Z,5.50
2017-12-16T04:15:42.066Z,4.57
2017-12-16T04:18:16.032Z,5.60
2017-12-16T04:20:50.132Z,6.37
2017-12-16T04:23:24.374Z,12.50
2017-12-16T04:25:58.442Z,6.90
2017-12-16T04:28:32.687Z,8.40
2017-12-16T04:31:07.331Z,10.03
2017-12-16T04:33:41.847Z,5.10
2017-12-16T04:36:15.885Z,8.60
2017-12-16T04:38:50.034Z,6.23
2017-12-16T04:41:24.389Z,5.80
2017-12-16T04:43:58.811Z,4.03
2017-12-16T04:46:33.014Z,4.20
2017-12-16T04:49:07.187Z,9.83
2017-12-16T04:51:41.235Z,9.10
2017-12-16T04:54:15.246Z,5.00
2017-12-16T04:56:50.470Z,9.20
2017-12-16T04:59:24.717Z,4.40
2017-12-16T05:01:58.781Z,5.23
2017-12-16T05:04:33.648Z,5.87
2017-12-16T05:07:07.747Z,11.00
2017-12-16T05:09:41.908Z,5.43
2017-12-16T05:12:15.943Z,6.97
2017-12-16T05:14:50.021Z,6.20
2017-12-16T05:17:24.046Z,9.00
2017-12-16T05:19:58.142Z,7.67
2017-12-16T05:22:32.173Z,6.43
2017-12-16T05:25:14.981Z,5.67
2017-12-16T05:27:50.130Z,9.23
2017-12-16T05:30:24.695Z,6.70
2017-12-16T05:32:58.737Z,4.70
2017-12-16T05:35:32.826Z,7.20
2017-12-16T05:38:06.861Z,4.40
2017-12-16T05:40:40.886Z,5.70
2017-12-16T05:43:15.881Z,7.10
2017-12-16T05:45:51.893Z,4.97
2017-12-16T05:48:26.146Z,6.77
2017-12-16T05:51:00.206Z,5.90
2017-12-16T05:53:34.317Z,4.30
2017-12-16T05:56:08.406Z,5.53
2017-12-16T05:58:42.480Z,7.77
2017-12-16T06:01:16.566Z,4.20
2017-12-16T06:03:50.699Z,4.20
2017-12-16T06:06:24.753Z,4.87
2017-12-16T06:08:58.928Z,6.00
2017-12-16T06:11:33.002Z,5.77
2017-12-16T06:14:07.267Z,7.17
2017-12-16T06:16:41.317Z,4.83
2017-12-16T06:19:15.473Z,13.20
2017-12-16T06:21:49.574Z,4.80
2017-12-16T06:24:23.740Z,4.93
2017-12-16T06:26:57.762Z,9.03
2017-12-16T06:29:32.334Z,5.87
2017-12-16T06:32:06.385Z,3.33
2017-12-16T06:34:40.562Z,3.47
2017-12-16T06:37:14.765Z,4.37
2017-12-16T06:39:48.953Z,4.87
2017-12-16T06:42:23.330Z,4.50
2017-12-16T06:44:57.494Z,7.63
2017-12-16T06:47:31.872Z,4.07
2017-12-16T06:50:14.800Z,6.33
2017-12-16T06:52:48.961Z,3.60
2017-12-16T06:55:23.038Z,4.20
2017-12-16T06:57:57.580Z,4.60
2017-12-16T07:00:31.807Z,4.50
2017-12-16T07:03:05.818Z,5.10
2017-12-16T07:05:40.246Z,3.60
2017-12-16T07:08:14.547Z,4.20
2017-12-16T07:10:48.814Z,8.47
2017-12-16T07:13:23.022Z,6.93
2017-12-16T07:15:57.275Z,6.00
2017-12-16T07:18:32.445Z,4.07
2017-12-16T07:21:06.651Z,3.47
2017-12-16T07:23:40.727Z,6.47
2017-12-16T07:26:14.858Z,3.07
2017-12-16T07:28:50.023Z,3.77
2017-12-16T07:31:24.396Z,4.10
2017-12-16T07:33:59.710Z,10.87
2017-12-16T07:36:34.009Z,3.17
2017-12-16T07:39:08.494Z,3.90
2017-12-16T07:41:42.853Z,3.47
2017-12-16T07:44:17.844Z,4.43
2017-12-16T07:46:52.484Z,3.57
2017-12-16T07:49:27.002Z,3.43
2017-12-16T07:52:01.879Z,5.20
2017-12-16T07:54:36.430Z,7.40
2017-12-16T07:57:11.081Z,4.20
2017-12-16T07:59:45.529Z,3.13
2017-12-16T08:02:19.621Z,2.80
2017-12-16T08:04:54.106Z,4.53
2017-12-16T08:07:28.530Z,6.10
2017-12-16T08:10:03.729Z,3.93
2017-12-16T08:12:38.226Z,5.53
2017-12-16T08:15:12.779Z,4.07
2017-12-16T08:17:47.375Z,7.23
2017-12-16T08:20:21.789Z,6.60
2017-12-16T08:22:56.806Z,3.47
2017-12-16T08:25:31.326Z,6.73
2017-12-16T08:28:06.855Z,3.40
2017-12-16T08:30:41.363Z,4.83
2017-12-16T08:33:16.109Z,3.30
2017-12-16T08:35:50.641Z,3.73
2017-12-16T08:38:25.150Z,24.20
2017-12-16T08:40:59.614Z,6.00
2017-12-16T08:43:34.103Z,10.67
2017-12-16T08:46:08.549Z,7.83
2017-12-16T08:48:42.944Z,3.60
2017-12-16T08:51:17.309Z,4.70
2017-12-16T08:53:51.866Z,5.97
2017-12-16T08:56:26.278Z,4.90
2017-12-16T08:59:00.762Z,4.90
2017-12-16T09:01:35.974Z,9.33
2017-12-16T09:04:10.382Z,8.63
2017-12-16T09:06:45.145Z,4.90
2017-12-16T09:09:19.526Z,8.40
2017-12-16T09:11:53.990Z,9.67
2017-12-16T09:14:28.950Z,15.03
2017-12-16T09:17:03.618Z,9.47
2017-12-16T09:19:39.153Z,7.60
2017-12-16T09:22:13.694Z,6.10
2017-12-16T09:24:48.274Z,17.07
2017-12-16T09:27:22.798Z,6.23
2017-12-16T09:29:57.146Z,6.83
2017-12-16T09:32:31.550Z,6.33
2017-12-16T09:35:06.029Z,8.00
2017-12-16T09:37:40.518Z,7.53
2017-12-16T09:40:14.901Z,6.70
2017-12-16T09:42:50.198Z,4.83
2017-12-16T09:45:24.727Z,9.37
2017-12-16T09:47:59.276Z,8.93
2017-12-16T09:50:33.737Z,5.90
2017-12-16T09:53:09.086Z,6.70
2017-12-16T09:55:43.593Z,4.20
2017-12-16T09:58:18.126Z,3.40
2017-12-16T10:00:52.634Z,7.10
2017-12-16T10:03:27.206Z,5.30
2017-12-16T10:06:01.570Z,7.60
2017-12-16T10:08:36.366Z,6.27
2017-12-16T10:11:10.927Z,5.43
2017-12-16T10:13:45.342Z,10.87
2017-12-16T10:16:19.964Z,4.00
2017-12-16T10:18:54.325Z,3.37
2017-12-16T10:21:28.734Z,3.17
2017-12-16T10:24:03.237Z,3.70
2017-12-16T10:26:37.635Z,4.50
2017-12-16T10:29:11.810Z,6.40
2017-12-16T10:31:47.837Z,8.90
2017-12-16T10:34:22.860Z,7.13
2017-12-16T10:36:57.483Z,3.80
2017-12-16T10:39:32.010Z,21.37
2017-12-16T10:42:06.382Z,6.63
2017-12-16T10:44:44.582Z,4.70
2017-12-16T10:47:19.175Z,3.47
2017-12-16T10:49:53.968Z,4.57
2017-12-16T10:52:28.558Z,7.27
2017-12-16T10:55:03.227Z,3.27
2017-12-16T10:57:37.666Z,7.97
2017-12-16T11:00:11.754Z,3.47
2017-12-16T11:02:46.109Z,5.20
2017-12-16T11:05:20.450Z,5.30
2017-12-16T11:07:55.010Z,5.00
2017-12-16T11:10:29.709Z,3.27
2017-12-16T11:13:04.139Z,4.87
2017-12-16T11:15:38.176Z,2.80
2017-12-16T11:18:12.830Z,5.50
2017-12-16T11:20:47.174Z,3.23
2017-12-16T11:23:21.740Z,2.40
2017-12-16T11:25:56.191Z,2.53
2017-12-16T11:28:31.606Z,4.23
2017-12-16T11:31:06.178Z,3.40
2017-12-16T11:33:40.657Z,3.33
2017-12-16T11:36:15.014Z,6.60
2017-12-16T11:38:49.594Z,3.97
2017-12-16T11:41:24.014Z,7.37
2017-12-16T11:43:58.558Z,8.80
2017-12-16T11:46:33.043Z,7.70
2017-12-16T11:49:07.586Z,4.40
2017-12-16T11:51:42.194Z,6.73
2017-12-16T11:54:17.370Z,6.07
2017-12-16T11:56:51.858Z,5.50
2017-12-16T11:59:26.354Z,6.33
2017-12-16T12:02:00.394Z,11.17
2017-12-16T12:04:34.997Z,4.97
2017-12-16T12:07:09.400Z,6.23
2017-12-16T12:09:43.930Z,5.03
2017-12-16T12:12:18.326Z,8.37
2017-12-16T12:14:53.723Z,4.50
2017-12-16T12:17:28.137Z,3.23
2017-12-16T12:20:02.634Z,5.40
2017-12-16T12:22:37.238Z,4.90
2017-12-16T12:25:11.678Z,6.93
2017-12-16T12:27:46.169Z,3.30
2017-12-16T12:30:21.109Z,7.73
2017-12-16T12:32:55.676Z,4.27
2017-12-16T12:35:30.450Z,5.00
2017-12-16T12:38:04.829Z,13.33
2017-12-16T12:40:39.216Z,3.87
2017-12-16T12:43:13.869Z,4.00
2017-12-16T12:45:48.350Z,8.63
2017-12-16T12:48:22.769Z,4.43
2017-12-16T12:50:57.243Z,10.00
2017-12-16T12:53:32.306Z,5.50
2017-12-16T12:56:06.653Z,11.63
2017-12-16T12:58:41.246Z,9.93
2017-12-16T13:01:15.658Z,6.57
2017-12-16T13:03:50.126Z,7.17
2017-12-16T13:06:24.586Z,8.23
2017-12-16T13:08:59.066Z,8.50
2017-12-16T13:11:33.493Z,5.57
2017-12-16T13:14:07.988Z,4.40
2017-12-16T13:16:42.619Z,4.57
2017-12-16T13:19:17.191Z,7.30
2017-12-16T13:21:51.549Z,4.70
2017-12-16T13:24:26.099Z,10.97
2017-12-16T13:27:00.174Z,11.37
2017-12-16T13:29:35.226Z,14.03
2017-12-16T13:32:09.590Z,4.20
2017-12-16T13:34:44.154Z,5.33
2017-12-16T13:37:18.936Z,4.40
2017-12-16T13:39:53.417Z,5.23
2017-12-16T13:42:28.684Z,6.73
2017-12-16T13:45:03.226Z,7.40
2017-12-16T13:47:37.828Z,6.57
2017-12-16T13:50:12.317Z,5.00
2017-12-16T13:52:46.675Z,9.93
2017-12-16T13:55:21.088Z,7.57
2017-12-16T13:57:55.632Z,8.77
2017-12-16T14:00:30.134Z,8.67
2017-12-16T14:03:04.646Z,7.33
2017-12-16T14:05:39.030Z,7.10
2017-12-16T14:08:13.537Z,11.00
2017-12-16T14:10:47.990Z,10.20
2017-12-16T14:13:22.564Z,8.50
2017-12-16T14:15:56.991Z,7.30
2017-12-16T14:18:31.458Z,8.87
2017-12-16T14:21:05.820Z,7.10
2017-12-16T14:23:40.366Z,10.07
2017-12-16T14:26:14.851Z,9.97
2017-12-16T14:28:49.322Z,7.10
2017-12-16T14:31:23.707Z,13.50
2017-12-16T14:33:58.269Z,6.43
2017-12-16T14:36:32.302Z,6.67
2017-12-16T14:39:06.842Z,7.10
2017-12-16T14:41:40.878Z,6.53
2017-12-16T14:44:15.526Z,29.43
2017-12-16T14:46:50.156Z,7.73
2017-12-16T14:49:24.635Z,8.07
2017-12-16T14:51:59.077Z,8.83
2017-12-16T14:54:33.700Z,8.23
2017-12-16T14:57:08.298Z,12.30
2017-12-16T14:59:42.817Z,11.50
2017-12-16T15:02:17.242Z,10.90
2017-12-16T15:04:51.727Z,7.50
2017-12-16T15:07:26.117Z,13.83
2017-12-16T15:10:00.678Z,8.80
2017-12-16T15:12:35.522Z,10.27
2017-12-16T15:15:09.906Z,9.13
2017-12-16T15:17:44.407Z,11.47
2017-12-16T15:20:18.877Z,8.00
2017-12-16T15:22:53.393Z,9.37
2017-12-16T15:25:29.246Z,8.63
2017-12-16T15:28:03.754Z,9.73
2017-12-16T15:30:38.174Z,6.53
2017-12-16T15:33:13.116Z,9.13
2017-12-16T15:35:47.620Z,7.00
2017-12-16T15:38:22.619Z,12.53
2017-12-16T15:40:57.150Z,9.10
2017-12-16T15:43:31.655Z,6.67
2017-12-16T15:46:06.101Z,7.43
2017-12-16T15:48:40.673Z,9.70
2017-12-16T15:51:15.050Z,6.97
2017-12-16T15:53:49.567Z,8.60
2017-12-16T15:56:23.993Z,10.50
2017-12-16T15:58:58.510Z,7.17
2017-12-16T16:01:32.889Z,9.40
2017-12-16T16:04:07.445Z,8.57
2017-12-16T16:06:41.864Z,10.30
2017-12-16T16:09:16.053Z,9.47
2017-12-16T16:11:50.187Z,9.30
2017-12-16T16:14:24.659Z,10.60
2017-12-16T16:16:59.098Z,11.20
2017-12-16T16:19:33.608Z,17.77
2017-12-16T16:22:07.966Z,15.20
2017-12-16T16:24:42.510Z,17.50
2017-12-16T16:27:16.872Z,15.63
2017-12-16T16:29:51.449Z,16.77
2017-12-16T16:32:25.871Z,14.00
2017-12-16T16:35:00.474Z,19.90
2017-12-16T16:37:35.162Z,20.60
2017-12-16T16:40:09.220Z,13.30
2017-12-16T16:42:43.769Z,18.50
2017-12-16T16:45:19.255Z,11.73
2017-12-16T16:47:54.184Z,14.57
2017-12-16T16:50:28.677Z,15.90
2017-12-16T16:53:03.054Z,17.73
2017-12-16T16:55:37.521Z,18.13
2017-12-16T16:58:12.017Z,21.20
2017-12-16T17:00:46.050Z,16.10
2017-12-16T17:03:20.684Z,22.17
2017-12-16T17:05:55.102Z,21.20
2017-12-16T17:08:33.555Z,20.47
2017-12-16T17:11:08.147Z,21.83
2017-12-16T17:13:42.638Z,12.90
2017-12-16T17:16:17.002Z,11.83
2017-12-16T17:18:51.541Z,19.43
2017-12-16T17:21:25.901Z,16.93
2017-12-16T17:24:00.418Z,17.67
2017-12-16T17:26:34.815Z,14.50
2017-12-16T17:29:09.742Z,16.50
2017-12-16T17:31:44.179Z,17.47
2017-12-16T17:34:18.657Z,16.13
2017-12-16T17:36:53.094Z,17.57
2017-12-16T17:39:27.638Z,15.80
2017-12-16T17:42:02.515Z,24.97
2017-12-16T17:44:37.030Z,22.20
2017-12-16T17:47:12.248Z,14.63
2017-12-16T17:49:46.738Z,17.90
2017-12-16T17:52:21.538Z,14.20
2017-12-16T17:54:56.197Z,15.00
2017-12-16T17:57:30.918Z,14.87
2017-12-16T18:00:05.577Z,17.03
2017-12-16T18:02:40.093Z,18.37
2017-12-16T18:05:14.471Z,18.77
2017-12-16T18:07:49.682Z,26.33
2017-12-16T18:10:24.364Z,15.87
2017-12-16T18:12:58.869Z,17.70
2017-12-16T18:15:33.635Z,15.10
2017-12-16T18:18:08.206Z,17.57
2017-12-16T18:20:42.627Z,15.37
2017-12-16T18:23:17.033Z,16.40
2017-12-16T18:25:51.515Z,15.60
2017-12-16T18:28:25.803Z,14.83
2017-12-16T18:31:00.417Z,23.53
2017-12-16T18:33:35.009Z,23.53
2017-12-16T18:36:09.706Z,20.07
2017-12-16T18:38:44.202Z,27.53
2017-12-16T18:41:18.570Z,21.63
2017-12-16T18:43:53.054Z,21.13
2017-12-16T18:46:27.501Z,19.17
2017-12-16T18:49:02.124Z,22.10
2017-12-16T18:51:36.738Z,23.23
2017-12-16T18:54:11.231Z,21.57
2017-12-16T18:56:45.748Z,16.50
2017-12-16T18:59:20.255Z,22.43
2017-12-16T19:01:54.697Z,23.40
2017-12-16T19:04:28.928Z,17.70
2017-12-16T19:07:03.342Z,20.07
2017-12-16T19:09:37.877Z,22.60
2017-12-16T19:12:12.418Z,17.97
2017-12-16T19:14:46.999Z,24.90
2017-12-16T19:17:21.585Z,24.00
2017-12-16T19:19:56.330Z,27.33
2017-12-16T19:22:30.922Z,20.30
2017-12-16T19:25:13.509Z,25.87
2017-12-16T19:27:52.874Z,19.37
2017-12-16T19:30:27.092Z,19.70
2017-12-16T19:33:01.709Z,30.90
2017-12-16T19:35:36.289Z,25.40
2017-12-16T19:38:10.814Z,17.77
2017-12-16T19:40:45.244Z,17.83
2017-12-16T19:43:19.561Z,18.53
2017-12-16T19:46:02.480Z,24.23
2017-12-16T19:48:37.003Z,17.30
2017-12-16T19:51:11.160Z,20.23
2017-12-16T19:53:45.993Z,21.70
2017-12-16T19:56:20.187Z,19.47
2017-12-16T19:58:54.763Z,20.03
2017-12-16T20:01:29.326Z,19.30
2017-12-16T20:04:03.892Z,22.00
2017-12-16T20:06:38.279Z,29.60
2017-12-16T20:09:12.837Z,26.10
2017-12-16T20:11:47.245Z,20.30
2017-12-16T20:14:21.745Z,15.90
2017-12-16T20:16:56.154Z,22.63
2017-12-16T20:19:30.648Z,21.27
2017-12-16T20:22:05.056Z,19.40
2017-12-16T20:24:39.522Z,22.37
2017-12-16T20:27:13.932Z,20.10
2017-12-16T20:29:48.394Z,26.70
2017-12-16T20:32:22.761Z,22.33
2017-12-16T20:34:57.694Z,23.70
2017-12-16T20:37:32.475Z,21.43
2017-12-16T20:40:14.590Z,19.57
2017-12-16T20:42:49.144Z,18.33
2017-12-16T20:45:23.556Z,19.57
2017-12-16T20:47:57.715Z,27.23
2017-12-16T20:50:32.135Z,20.17
2017-12-16T20:53:07.002Z,17.67
2017-12-16T20:55:41.557Z,23.70
2017-12-16T20:58:16.169Z,15.97
2017-12-16T21:00:50.307Z,23.07
2017-12-16T21:03:24.817Z,20.50
2017-12-16T21:05:59.238Z,24.00
2017-12-16T21:08:33.740Z,19.00
2017-12-16T21:11:08.212Z,22.10
2017-12-16T21:13:42.965Z,22.70
2017-12-16T21:16:17.402Z,24.53
2017-12-16T21:18:52.066Z,19.93
2017-12-16T21:21:26.998Z,18.33
2017-12-16T21:24:01.600Z,19.40
2017-12-16T21:26:36.154Z,20.40
2017-12-16T21:29:10.829Z,17.33
2017-12-16T21:31:45.203Z,20.23
2017-12-16T21:34:19.838Z,24.73
2017-12-16T21:36:54.866Z,23.93
2017-12-16T21:39:29.363Z,20.77
2017-12-16T21:42:03.779Z,21.23
2017-12-16T21:44:38.233Z,19.73
2017-12-16T21:47:12.647Z,28.20
2017-12-16T21:49:47.258Z,20.17
2017-12-16T21:52:21.862Z,23.60
2017-12-16T21:54:56.296Z,19.70
2017-12-16T21:57:30.713Z,26.03
2017-12-16T22:00:14.056Z,20.10
2017-12-16T22:02:48.634Z,14.93
2017-12-16T22:05:23.082Z,18.23
2017-12-16T22:07:57.594Z,12.97
2017-12-16T22:10:32.037Z,15.97
2017-12-16T22:13:06.665Z,14.90
2017-12-16T22:15:41.019Z,17.37
2017-12-16T22:18:15.722Z,17.90
2017-12-16T22:20:50.081Z,14.97
2017-12-16T22:23:24.573Z,15.90
2017-12-16T22:25:58.986Z,16.33
2017-12-16T22:28:33.598Z,13.77
2017-12-16T22:31:08.005Z,18.03
2017-12-16T22:33:42.463Z,10.60
2017-12-16T22:36:16.990Z,13.23
2017-12-16T22:38:51.647Z,17.80
2017-12-16T22:41:26.164Z,9.80
2017-12-16T22:44:00.950Z,12.57
2017-12-16T22:46:35.522Z,9.17
2017-12-16T22:49:10.099Z,15.90
2017-12-16T22:51:44.560Z,17.90
2017-12-16T22:54:19.167Z,9.80
2017-12-16T22:56:53.504Z,15.23
2017-12-16T22:59:28.060Z,14.53
2017-12-16T23:02:02.677Z,17.73
2017-12-16T23:04:37.960Z,19.00
2017-12-16T23:07:12.062Z,20.20
2017-12-16T23:09:46.186Z,22.73
2017-12-16T23:12:20.249Z,20.40
2017-12-16T23:14:54.402Z,19.83
2017-12-16T23:17:28.642Z,21.27
2017-12-16T23:20:13.017Z,21.55
2017-12-16T23:22:47.251Z,25.50
2017-12-16T23:25:21.320Z,23.17
2017-12-16T23:27:55.650Z,26.23
2017-12-16T23:30:29.971Z,23.00
2017-12-16T23:33:04.126Z,22.40
2017-12-16T23:35:38.487Z,19.25
2017-12-16T23:38:12.562Z,20.93
2017-12-16T23:40:46.690Z,22.87
2017-12-16T23:43:20.942Z,20.60
2017-12-16T23:45:55.123Z,21.17
2017-12-16T23:48:29.357Z,20.03
2017-12-16T23:51:03.502Z,18.27
2017-12-16T23:53:37.681Z,17.63
2017-12-16T23:56:11.726Z,19.47
2017-12-16T23:58:45.911Z,18.93
